Time;durP1;ratioP1;P1;durP2;ratioP2;P2;SDS_P1;SDS_P2;PMS_P1;PMS_P2;Temp;Humidity;BMP_temperature;BMP_pressure;BME280_temperature;BME280_humidity;BME280_pressure;Samples;Min_cycle;Max_cycle;Signal;HPM_P1;HPM_P2
2020/01/14 00:00:32;;;;;;;13.5;7.5;;;;;;;-1.04;70.87305;939.6192;;;;
2020/01/14 00:02:57;;;;;;;11.9;7.1;;;;;;;-1.04;70.92871;939.5942;;;;
2020/01/14 00:05:22;;;;;;;11.8;7.1;;;;;;;-1.09;71.27539;939.6843;;;;
2020/01/14 00:07:47;;;;;;;10.8;6.4;;;;;;;-1.16;71.84082;939.6917;;;;
2020/01/14 00:10:12;;;;;;;9.9;6.4;;;;;;;-1.29;72.44141;939.6028;;;;
2020/01/14 00:12:38;;;;;;;12.6;6.9;;;;;;;-1.31;72.64844;939.6989;;;;
2020/01/14 00:15:03;;;;;;;11.6;6.9;;;;;;;-1.23;72.03906;939.6086;;;;
2020/01/14 00:17:29;;;;;;;12.5;6.4;;;;;;;-1.21;71.66602;939.5496;;;;
2020/01/14 00:19:54;;;;;;;10.4;6;;;;;;;-1.17;71.66113;939.5942;;;;
2020/01/14 00:22:19;;;;;;;9.7;5;;;;;;;-1.16;71.34082;939.6032;;;;
2020/01/14 00:24:45;;;;;;;9.4;5.1;;;;;;;-1.18;71.3252;939.798;;;;
2020/01/14 00:27:10;;;;;;;9.5;5.2;;;;;;;-1.16;71.36328;939.8335;;;;
2020/01/14 00:29:35;;;;;;;10.5;5.1;;;;;;;-1.19;71.22461;939.8359;;;;
2020/01/14 00:32:00;;;;;;;10.5;5.4;;;;;;;-1.16;71.38477;939.8003;;;;
2020/01/14 00:34:44;;;;;;;6.4;3.9;;;;;;;-1.1;70.86133;939.8284;;;;
2020/01/14 00:36:51;;;;;;;8.9;4.7;;;;;;;-1.22;71.13184;939.8133;;;;
2020/01/14 00:39:16;;;;;;;7.8;4.3;;;;;;;-1.26;71.29102;939.7192;;;;
2020/01/14 00:41:41;;;;;;;7.9;4.1;;;;;;;-1.29;71.31934;939.6834;;;;
2020/01/14 00:44:26;;;;;;;6.6;3.6;;;;;;;-1.4;71.62305;939.6806;;;;
2020/01/14 00:48:49;;;;;;;7.4;3.4;;;;;;;-1.37;71.39453;939.5455;;;;
2020/01/14 00:49:23;;;;;;;7.5;3.8;;;;;;;-1.35;71.39746;939.6169;;;;
2020/01/14 00:51:25;;;;;;;9.2;4.1;;;;;;;-1.2;71.06641;939.6163;;;;
2020/01/14 00:53:47;;;;;;;10.3;5.8;;;;;;;-1.1;71.58301;939.615;;;;
2020/01/14 00:56:12;;;;;;;10.1;4.9;;;;;;;-1.17;71.10547;939.577;;;;
2020/01/14 00:58:37;;;;;;;9.6;5.2;;;;;;;-1.22;70.93164;939.5811;;;;
2020/01/14 01:01:03;;;;;;;11.2;5.9;;;;;;;-1.27;70.90137;939.6323;;;;
2020/01/14 01:03:28;;;;;;;10.4;5.8;;;;;;;-1.33;71.24316;939.6559;;;;
2020/01/14 01:05:53;;;;;;;9.8;5.4;;;;;;;-1.37;71.79395;939.5545;;;;
2020/01/14 01:08:19;;;;;;;10.5;6;;;;;;;-1.56;72.00586;939.6509;;;;
2020/01/14 01:10:44;;;;;;;10.4;5;;;;;;;-1.6;72.10938;939.6136;;;;
2020/01/14 01:13:09;;;;;;;10.4;4.9;;;;;;;-1.59;72.32129;939.6155;;;;
2020/01/14 01:15:35;;;;;;;9.6;4.8;;;;;;;-1.68;72.73828;939.5242;;;;
2020/01/14 01:18:00;;;;;;;7.7;4.1;;;;;;;-1.72;72.69922;939.587;;;;
2020/01/14 01:20:27;;;;;;;8;4.4;;;;;;;-1.6;72.53125;939.5637;;;;
2020/01/14 01:22:52;;;;;;;7.2;3.8;;;;;;;-1.5;71.94824;939.5463;;;;
2020/01/14 01:25:25;;;;;;;7.5;4.1;;;;;;;-1.52;71.74609;939.6139;;;;
2020/01/14 01:27:50;;;;;;;12.6;4.2;;;;;;;-1.55;71.50781;939.6428;;;;
2020/01/14 01:30:16;;;;;;;7.9;3.7;;;;;;;-1.49;71.16211;939.6;;;;
2020/01/14 01:32:41;;;;;;;8.2;4.1;;;;;;;-1.56;71.01855;939.6119;;;;
2020/01/14 01:35:06;;;;;;;6.8;3.9;;;;;;;-1.44;70.9043;939.6506;;;;
2020/01/14 01:37:31;;;;;;;6.5;3.7;;;;;;;-1.44;70.76074;939.6144;;;;
2020/01/14 01:39:56;;;;;;;5.6;3.5;;;;;;;-1.49;70.83984;939.629;;;;
2020/01/14 01:42:21;;;;;;;7.2;3.8;;;;;;;-1.48;70.80957;939.6686;;;;
2020/01/14 01:44:46;;;;;;;6.2;3.8;;;;;;;-1.48;70.97461;939.6526;;;;
2020/01/14 01:47:11;;;;;;;7.1;3.8;;;;;;;-1.55;71.30859;939.6325;;;;
2020/01/14 01:49:37;;;;;;;8.8;3.8;;;;;;;-1.61;71.66406;939.6227;;;;
2020/01/14 01:52:01;;;;;;;6.2;3.4;;;;;;;-1.65;71.92383;939.6492;;;;
2020/01/14 01:54:27;;;;;;;5.5;3;;;;;;;-1.64;71.80371;939.5914;;;;
2020/01/14 01:56:52;;;;;;;6.2;3.8;;;;;;;-1.59;71.81055;939.5789;;;;
2020/01/14 01:59:23;;;;;;;7.7;3.6;;;;;;;-1.58;71.82324;939.6144;;;;
2020/01/14 02:08:23;;;;;;;8.3;3.5;;;;;;;-1.65;72.18848;939.5717;;;;
2020/01/14 02:08:58;;;;;;;6.2;3.4;;;;;;;-1.82;72.91504;939.5217;;;;
2020/01/14 02:11:23;;;;;;;7.1;3.4;;;;;;;-1.69;72.55957;939.5457;;;;
2020/01/14 02:13:48;;;;;;;8.2;3.7;;;;;;;-1.68;72.49414;939.5547;;;;
2020/01/14 02:16:13;;;;;;;7;3.9;;;;;;;-1.66;72.43066;939.5244;;;;
2020/01/14 02:18:38;;;;;;;8.3;4.4;;;;;;;-1.73;72.875;939.5768;;;;
2020/01/14 02:21:03;;;;;;;7.1;3.8;;;;;;;-1.81;73.29395;939.5603;;;;
2020/01/14 02:23:28;;;;;;;7.5;3.5;;;;;;;-1.81;73.23828;939.4377;;;;
2020/01/14 02:25:53;;;;;;;6.2;3.5;;;;;;;-1.92;73.55176;939.4886;;;;
2020/01/14 02:28:19;;;;;;;5.9;3.4;;;;;;;-2.04;73.95117;939.4539;;;;
2020/01/14 02:30:44;;;;;;;5.8;3.4;;;;;;;-2.02;73.98926;939.4335;;;;
2020/01/14 02:33:10;;;;;;;5.9;3.2;;;;;;;-1.96;73.83398;939.3787;;;;
2020/01/14 02:35:38;;;;;;;5.8;2.9;;;;;;;-2;73.72656;939.2313;;;;
2020/01/14 02:38:00;;;;;;;7.5;3.5;;;;;;;-1.94;73.80371;939.2838;;;;
2020/01/14 02:40:25;;;;;;;6.5;4.8;;;;;;;-2.03;73.78809;939.198;;;;
2020/01/14 02:42:51;;;;;;;7.3;3.5;;;;;;;-1.94;73.61523;939.1386;;;;
2020/01/14 02:45:16;;;;;;;5.1;3;;;;;;;-1.91;73.1875;939.0936;;;;
2020/01/14 02:47:41;;;;;;;5.5;3;;;;;;;-1.94;73.37109;939.1183;;;;
2020/01/14 02:50:06;;;;;;;5.6;2.9;;;;;;;-1.96;73.32422;939.0563;;;;
2020/01/14 02:52:32;;;;;;;6.6;2.9;;;;;;;-1.91;73.23145;939.0062;;;;
2020/01/14 02:54:57;;;;;;;6;2.8;;;;;;;-1.92;72.69824;938.9066;;;;
2020/01/14 02:57:22;;;;;;;4.4;2.7;;;;;;;-1.89;72.66895;938.9199;;;;
2020/01/14 02:59:48;;;;;;;5;2.7;;;;;;;-1.74;72.22852;938.8574;;;;
2020/01/14 03:02:13;;;;;;;5.7;2.8;;;;;;;-1.67;71.9082;938.7994;;;;
2020/01/14 03:04:39;;;;;;;6.2;2.8;;;;;;;-1.84;72.32227;938.7908;;;;
2020/01/14 03:07:04;;;;;;;5.4;2.8;;;;;;;-1.93;72.54102;938.6805;;;;
2020/01/14 03:09:34;;;;;;;4.6;2.7;;;;;;;-1.93;72.36523;938.6298;;;;
2020/01/14 03:11:59;;;;;;;5.2;2.8;;;;;;;-1.93;72.43164;938.5846;;;;
2020/01/14 03:14:24;;;;;;;6;3;;;;;;;-1.92;72.44336;938.6273;;;;
2020/01/14 03:16:49;;;;;;;5.7;3.1;;;;;;;-2.02;73.00098;938.6055;;;;
2020/01/14 03:19:15;;;;;;;13.5;3.5;;;;;;;-2.04;73.25293;938.6379;;;;
2020/01/14 03:21:40;;;;;;;5.8;3.1;;;;;;;-2.13;73.74805;938.6166;;;;
2020/01/14 03:24:05;;;;;;;8;4.4;;;;;;;-2.15;74.29785;938.6537;;;;
2020/01/14 03:26:31;;;;;;;6.2;3.7;;;;;;;-2.06;73.96973;938.5017;;;;
2020/01/14 03:28:56;;;;;;;4.8;3.2;;;;;;;-2.06;73.94824;938.6;;;;
2020/01/14 03:31:21;;;;;;;5.8;3.8;;;;;;;-2.12;74.04883;938.6608;;;;
2020/01/14 03:33:47;;;;;;;8.5;5.2;;;;;;;-2.18;74.38184;938.6323;;;;
2020/01/14 03:36:12;;;;;;;5.8;3.7;;;;;;;-2.13;74.20117;938.7505;;;;
2020/01/14 03:38:37;;;;;;;7.7;3.2;;;;;;;-2.08;73.69141;938.7723;;;;
2020/01/14 03:41:03;;;;;;;6;3.1;;;;;;;-2.04;73.42969;938.7525;;;;
2020/01/14 03:43:28;;;;;;;5.9;3;;;;;;;-1.99;72.90723;938.7403;;;;
2020/01/14 03:46:04;;;;;;;6.4;3.2;;;;;;;-1.91;72.53125;938.6438;;;;
2020/01/14 03:50:45;;;;;;;5.3;3.2;;;;;;;-1.97;72.66602;938.6554;;;;
2020/01/14 03:53:10;;;;;;;6.5;3;;;;;;;-2.15;73.51074;938.6467;;;;
2020/01/14 03:55:43;;;;;;;5.2;2.8;;;;;;;-2.13;73.61523;938.5776;;;;
2020/01/14 03:58:05;;;;;;;6.3;2.6;;;;;;;-2.09;73.15625;938.626;;;;
2020/01/14 04:02:53;;;;;;;4.3;2.5;;;;;;;-1.86;72.65234;938.6039;;;;
2020/01/14 04:04:56;;;;;;;5.6;2.7;;;;;;;-1.85;72.38867;938.611;;;;
2020/01/14 04:07:20;;;;;;;5.7;2.7;;;;;;;-1.89;72.35938;938.5828;;;;
2020/01/14 04:09:45;;;;;;;4.7;2.3;;;;;;;-1.79;72.53125;938.6057;;;;
2020/01/14 04:12:10;;;;;;;5.8;2.4;;;;;;;-1.7;71.67969;938.6891;;;;
2020/01/14 04:14:35;;;;;;;3.7;2.2;;;;;;;-1.68;71.10742;938.5931;;;;
2020/01/14 04:17:01;;;;;;;5.6;2.7;;;;;;;-1.69;71.46094;938.5386;;;;
2020/01/14 04:19:26;;;;;;;4;2.4;;;;;;;-1.75;72.05078;938.6625;;;;
2020/01/14 04:21:51;;;;;;;6.6;3.2;;;;;;;-1.69;71.66113;938.7601;;;;
2020/01/14 04:24:16;;;;;;;8.9;4;;;;;;;-1.65;71.30273;938.7813;;;;
2020/01/14 04:26:41;;;;;;;7.5;4;;;;;;;-1.81;71.69629;938.7744;;;;
2020/01/14 04:29:06;;;;;;;11.1;4.6;;;;;;;-1.9;72.21289;938.7858;;;;
2020/01/14 04:31:31;;;;;;;9.1;4.4;;;;;;;-2;72.55078;938.7346;;;;
2020/01/14 04:33:57;;;;;;;6.9;4.3;;;;;;;-2.11;73.08594;938.759;;;;
2020/01/14 04:36:22;;;;;;;6.7;4;;;;;;;-2.15;73.05762;938.7202;;;;
2020/01/14 04:38:47;;;;;;;7.3;3.3;;;;;;;-2.15;72.69043;938.685;;;;
2020/01/14 04:41:12;;;;;;;7.5;4;;;;;;;-2.15;72.67969;938.7065;;;;
2020/01/14 04:43:37;;;;;;;7;4.3;;;;;;;-2.08;72.67188;938.7723;;;;
2020/01/14 04:46:02;;;;;;;7.9;4.1;;;;;;;-2.03;72.66797;938.7003;;;;
2020/01/14 04:48:28;;;;;;;5.4;3.3;;;;;;;-2.09;73.15625;938.7072;;;;
2020/01/14 04:50:53;;;;;;;6.2;3.1;;;;;;;-2.17;73.39648;938.8139;;;;
2020/01/14 04:53:18;;;;;;;4.5;2.4;;;;;;;-2.17;73.60742;938.8445;;;;
2020/01/14 04:55:43;;;;;;;6.7;2.4;;;;;;;-2.08;73.15723;938.7683;;;;
2020/01/14 04:58:08;;;;;;;4.9;2.4;;;;;;;-1.98;72.78809;938.7799;;;;
2020/01/14 05:00:33;;;;;;;7.3;2.2;;;;;;;-1.95;72.57129;938.8269;;;;
2020/01/14 05:02:59;;;;;;;6.3;2.9;;;;;;;-1.93;72.87402;938.7803;;;;
2020/01/14 05:05:24;;;;;;;5;2.9;;;;;;;-1.89;72.9043;938.7461;;;;
2020/01/14 05:07:49;;;;;;;5.9;3.1;;;;;;;-1.84;72.76563;938.6956;;;;
2020/01/14 05:10:14;;;;;;;6.8;3.4;;;;;;;-1.73;72.55469;938.7233;;;;
2020/01/14 05:12:39;;;;;;;6.1;3.1;;;;;;;-1.86;72.91797;938.5952;;;;
2020/01/14 05:15:04;;;;;;;11.3;4.5;;;;;;;-2.01;73.74707;938.7006;;;;
2020/01/14 05:17:29;;;;;;;9.6;5;;;;;;;-2.12;74.39063;938.6964;;;;
2020/01/14 05:19:55;;;;;;;8.3;4.5;;;;;;;-2.15;74.43066;938.6803;;;;
2020/01/14 05:22:19;;;;;;;8.1;4.4;;;;;;;-2.11;74.44922;938.6121;;;;
2020/01/14 05:24:45;;;;;;;8.9;4.5;;;;;;;-2.03;73.61035;938.5193;;;;
2020/01/14 05:27:10;;;;;;;8.2;5.1;;;;;;;-1.94;73.37012;938.6858;;;;
2020/01/14 05:29:35;;;;;;;11.9;6.9;;;;;;;-2.01;73.56934;938.7043;;;;
2020/01/14 05:32:00;;;;;;;12.6;7;;;;;;;-2;73.64844;938.7311;;;;
2020/01/14 05:34:25;;;;;;;10.3;6.6;;;;;;;-2;73.23828;938.761;;;;
2020/01/14 05:36:52;;;;;;;10.2;6.8;;;;;;;-1.98;73.47461;938.8046;;;;
2020/01/14 05:39:15;;;;;;;10.7;6.1;;;;;;;-2.05;73.88477;938.8592;;;;
2020/01/14 05:41:46;;;;;;;8.7;4.6;;;;;;;-2.17;74.44922;938.8679;;;;
2020/01/14 05:44:25;;;;;;;7.1;4.6;;;;;;;-2.28;74.62988;938.9666;;;;
2020/01/14 05:49:04;;;;;;;13.1;6.3;;;;;;;-2.28;74.18652;938.9282;;;;
2020/01/14 05:51:21;;;;;;;10.8;5.6;;;;;;;-2.21;73.71191;938.8412;;;;
2020/01/14 05:53:46;;;;;;;10.9;5.2;;;;;;;-2.14;73.5127;938.7866;;;;
2020/01/14 05:56:11;;;;;;;10.5;5.4;;;;;;;-2.08;72.93555;938.8359;;;;
2020/01/14 05:58:36;;;;;;;13;7.4;;;;;;;-2.06;72.82813;938.8964;;;;
2020/01/14 06:01:01;;;;;;;14.1;7.3;;;;;;;-2.09;72.82227;938.8385;;;;
2020/01/14 06:03:26;;;;;;;9;4.7;;;;;;;-2.07;72.5498;938.8953;;;;
2020/01/14 06:05:51;;;;;;;10.3;3.8;;;;;;;-2.03;72.58887;938.92;;;;
2020/01/14 06:08:17;;;;;;;10.8;3.7;;;;;;;-1.98;72.32129;938.9098;;;;
2020/01/14 06:10:42;;;;;;;7.1;3.6;;;;;;;-2.09;72.55762;938.894;;;;
2020/01/14 06:13:08;;;;;;;9.3;3.6;;;;;;;-2.16;73.14355;939.0662;;;;
2020/01/14 06:15:34;;;;;;;11.1;4.2;;;;;;;-2.17;73.54102;939.075;;;;
2020/01/14 06:17:59;;;;;;;14.3;5.1;;;;;;;-2.13;73.34766;938.9782;;;;
2020/01/14 06:20:24;;;;;;;16;5.1;;;;;;;-2.11;73.45215;939.0692;;;;
2020/01/14 06:22:50;;;;;;;12.4;5.9;;;;;;;-2.2;73.55859;939.0627;;;;
2020/01/14 06:25:31;;;;;;;10.7;6.2;;;;;;;-2.28;74.04297;939.1238;;;;
2020/01/14 06:27:56;;;;;;;13.8;5.6;;;;;;;-2.28;73.94238;939.1478;;;;
2020/01/14 06:30:21;;;;;;;14.9;6.4;;;;;;;-2.21;73.39063;939.1563;;;;
2020/01/14 06:32:47;;;;;;;13;5.1;;;;;;;-2.17;73.17676;939.2151;;;;
2020/01/14 06:35:12;;;;;;;8.7;4.8;;;;;;;-2.18;72.94043;939.1923;;;;
2020/01/14 06:37:37;;;;;;;17.5;5.5;;;;;;;-2.13;72.72852;939.146;;;;
2020/01/14 06:40:02;;;;;;;13.1;5.1;;;;;;;-1.98;73.19727;939.0284;;;;
2020/01/14 06:42:27;;;;;;;15;4.9;;;;;;;-1.8;71.86426;939.0776;;;;
2020/01/14 06:44:52;;;;;;;20.9;7.2;;;;;;;-1.75;72.23926;939.0499;;;;
2020/01/14 06:47:30;;;;;;;26;11;;;;;;;-1.81;71.74023;939.0712;;;;
2020/01/14 06:49:42;;;;;;;17.7;9;;;;;;;-1.89;71.57129;939.1275;;;;
2020/01/14 06:52:08;;;;;;;21.2;10.1;;;;;;;-1.84;71.56934;939.1788;;;;
2020/01/14 06:54:33;;;;;;;15;7.3;;;;;;;-1.93;71.67773;939.2134;;;;
2020/01/14 06:56:58;;;;;;;13.4;7.4;;;;;;;-1.99;71.80957;939.2521;;;;
2020/01/14 06:59:24;;;;;;;17.3;8;;;;;;;-1.94;72.02832;939.2719;;;;
2020/01/14 07:01:49;;;;;;;17.2;6.6;;;;;;;-1.87;71.3418;939.2269;;;;
2020/01/14 07:04:14;;;;;;;11.9;5.1;;;;;;;-1.83;71.00586;939.2056;;;;
2020/01/14 07:06:39;;;;;;;9.8;3.7;;;;;;;-1.8;69.60254;939.2335;;;;
2020/01/14 07:09:05;;;;;;;11.8;3.8;;;;;;;-1.66;69.22461;939.2255;;;;
2020/01/14 07:12:10;;;;;;;11.9;3.8;;;;;;;-1.37;68.26172;939.2428;;;;
2020/01/14 07:14:35;;;;;;;9.8;4.2;;;;;;;-1.22;67.04395;939.1336;;;;
2020/01/14 07:17:00;;;;;;;15.5;5.6;;;;;;;-1.26;68.11426;939.2296;;;;
2020/01/14 07:19:25;;;;;;;23;7.9;;;;;;;-1.45;69.45996;939.2892;;;;
2020/01/14 07:21:50;;;;;;;22.9;9.9;;;;;;;-1.56;69.95117;939.3008;;;;
2020/01/14 07:24:16;;;;;;;26;10.7;;;;;;;-1.77;70.79297;939.2414;;;;
2020/01/14 07:26:40;;;;;;;27;8.9;;;;;;;-1.91;71.30371;939.1241;;;;
2020/01/14 07:29:06;;;;;;;19.9;7.6;;;;;;;-1.89;71.27246;939.2217;;;;
2020/01/14 07:31:31;;;;;;;22.6;7.6;;;;;;;-1.9;71.31543;939.2701;;;;
2020/01/14 07:33:56;;;;;;;23.7;7.6;;;;;;;-1.87;71.33203;939.2866;;;;
2020/01/14 07:36:21;;;;;;;25.3;7.7;;;;;;;-1.86;71.2002;939.3361;;;;
2020/01/14 07:38:46;;;;;;;18.5;6.9;;;;;;;-1.82;71.0293;939.3738;;;;
2020/01/14 07:41:11;;;;;;;19.6;6.9;;;;;;;-1.73;70.80176;939.3461;;;;
2020/01/14 07:43:36;;;;;;;24.8;8.6;;;;;;;-1.72;71.06836;939.3782;;;;
2020/01/14 07:46:07;;;;;;;31.1;9.3;;;;;;;-1.65;70.98047;939.3325;;;;
2020/01/14 07:55:44;;;;;;;28;10.3;;;;;;;0.72;61.59473;939.2458;;;;
2020/01/14 07:58:08;;;;;;;15;6.3;;;;;;;1.87;56.87305;939.2188;;;;
2020/01/14 08:02:58;;;;;;;21.4;10.5;;;;;;;3.97;51.39746;939.1166;;;;
2020/01/14 08:05:23;;;;;;;22;9.9;;;;;;;4.17;50.375;939.1744;;;;
2020/01/14 08:07:48;;;;;;;21;9.6;;;;;;;4.18;50.48828;939.188;;;;
2020/01/14 08:10:13;;;;;;;19.4;7.6;;;;;;;4.37;49.37402;939.19;;;;
2020/01/14 08:12:38;;;;;;;23;7.5;;;;;;;4.46;48.69824;939.1358;;;;
2020/01/14 08:15:03;;;;;;;13.4;6.7;;;;;;;3.92;49.47949;939.1636;;;;
2020/01/14 08:17:28;;;;;;;42;8.7;;;;;;;3.09;52.08789;939.1192;;;;
2020/01/14 08:19:54;;;;;;;24.2;6.8;;;;;;;3.13;52.70898;939.1042;;;;
2020/01/14 08:22:19;;;;;;;28.5;7.8;;;;;;;3.3;52.25977;939.0686;;;;
2020/01/14 08:24:44;;;;;;;37.1;7.3;;;;;;;3.92;50.61523;939.1321;;;;
2020/01/14 08:27:10;;;;;;;41.3;7.1;;;;;;;4.83;48.09766;939.1305;;;;
2020/01/14 08:29:35;;;;;;;21.9;6.3;;;;;;;4.94;46.98438;939.1782;;;;
2020/01/14 08:32:00;;;;;;;20.6;7.7;;;;;;;5.03;46.94922;939.2523;;;;
2020/01/14 08:34:26;;;;;;;30.8;8.6;;;;;;;4.89;47.5752;939.1836;;;;
2020/01/14 08:36:51;;;;;;;14.4;6.8;;;;;;;5.08;46.86426;939.2364;;;;
2020/01/14 08:39:17;;;;;;;20.7;6.6;;;;;;;5.73;45.60254;939.2594;;;;
2020/01/14 08:41:41;;;;;;;26;7.5;;;;;;;6.02;44.67383;939.2288;;;;
2020/01/14 08:44:06;;;;;;;20.8;7.4;;;;;;;6.25;43.5;939.3201;;;;
2020/01/14 08:46:32;;;;;;;13.5;7.1;;;;;;;6.66;43.02051;939.3744;;;;
2020/01/14 08:48:57;;;;;;;48.2;8.8;;;;;;;7.09;42.31543;939.368;;;;
2020/01/14 08:51:22;;;;;;;34.7;7.3;;;;;;;7.34;41.83105;939.4433;;;;
2020/01/14 08:53:47;;;;;;;15.5;5.9;;;;;;;6.78;41.68555;939.4327;;;;
2020/01/14 08:56:12;;;;;;;42.7;8.9;;;;;;;5.86;45.26758;939.4736;;;;
2020/01/14 08:58:38;;;;;;;26.6;7.7;;;;;;;5.39;46.73926;939.4683;;;;
2020/01/14 09:01:03;;;;;;;22;6.1;;;;;;;4.77;48.21582;939.5385;;;;
2020/01/14 09:03:28;;;;;;;55.7;9.3;;;;;;;4.31;49.52539;939.6326;;;;
2020/01/14 09:05:54;;;;;;;45.4;8.8;;;;;;;3.82;50.91797;939.613;;;;
2020/01/14 09:08:18;;;;;;;16.6;5.7;;;;;;;3.65;51.49414;939.6395;;;;
2020/01/14 09:13:11;;;;;;;76.7;10.4;;;;;;;3.35;52.4668;939.6802;;;;
2020/01/14 09:23:11;;;;;;;42.2;7.1;;;;;;;3.23;52.18262;939.77;;;;
2020/01/14 09:25:18;;;;;;;42.6;7.6;;;;;;;3.29;52;939.8535;;;;
2020/01/14 09:28:42;;;;;;;29.8;6.4;;;;;;;3.41;51.3623;939.885;;;;
2020/01/14 09:30:05;;;;;;;97.9;13.6;;;;;;;3.53;50.61328;939.8904;;;;
2020/01/14 09:32:29;;;;;;;35.5;6.3;;;;;;;3.56;49.21387;939.8533;;;;
2020/01/14 09:34:55;;;;;;;27.3;5.6;;;;;;;3.68;48.55273;939.9163;;;;
2020/01/14 09:37:20;;;;;;;51.6;7.9;;;;;;;3.81;48.97363;939.82;;;;
2020/01/14 09:39:45;;;;;;;80.4;12.4;;;;;;;4;48.56738;939.9127;;;;
2020/01/14 09:42:10;;;;;;;59;13.4;;;;;;;4.05;48.36035;939.9503;;;;
2020/01/14 09:44:35;;;;;;;43.4;11.6;;;;;;;4.24;47.76172;939.9659;;;;
2020/01/14 09:47:00;;;;;;;23.1;6.7;;;;;;;4.4;45.80957;939.9573;;;;
2020/01/14 09:49:26;;;;;;;33.7;6.8;;;;;;;4.4;46.64258;939.9345;;;;
2020/01/14 09:51:51;;;;;;;62.4;9.3;;;;;;;4.45;47.09863;939.8727;;;;
2020/01/14 09:54:16;;;;;;;73.8;10.7;;;;;;;4.57;47.6416;939.7538;;;;
2020/01/14 09:56:41;;;;;;;17.4;6;;;;;;;4.58;48.55469;939.7803;;;;
2020/01/14 09:59:07;;;;;;;15.2;6.5;;;;;;;4.55;49.80078;939.798;;;;
2020/01/14 10:01:32;;;;;;;27.7;7.3;;;;;;;4.71;48.92969;939.7092;;;;
2020/01/14 10:03:57;;;;;;;25;5.5;;;;;;;4.89;46.69727;939.7827;;;;
2020/01/14 10:06:22;;;;;;;35.9;6;;;;;;;5.14;45.02148;939.6813;;;;
2020/01/14 10:08:47;;;;;;;13.5;3.3;;;;;;;5.19;43.40234;939.6298;;;;
2020/01/14 10:11:12;;;;;;;37.2;6.6;;;;;;;5.35;44.27637;939.6249;;;;
2020/01/14 10:13:37;;;;;;;30.1;6;;;;;;;5.59;44.84277;939.5811;;;;
2020/01/14 10:16:03;;;;;;;20.4;8.2;;;;;;;5.8;46.36621;939.5552;;;;
2020/01/14 10:18:28;;;;;;;31.9;9.4;;;;;;;5.82;45.79297;939.5403;;;;
2020/01/14 10:20:55;;;;;;;44.7;8.3;;;;;;;5.82;44.91211;939.5823;;;;
2020/01/14 10:23:19;;;;;;;22.9;5.6;;;;;;;5.66;43.93652;939.5425;;;;
2020/01/14 10:25:44;;;;;;;17.8;3.2;;;;;;;5.61;42.31641;939.5394;;;;
2020/01/14 10:28:09;;;;;;;25.6;3.3;;;;;;;5.68;41.78125;939.479;;;;
2020/01/14 10:30:35;;;;;;;44.4;6.5;;;;;;;5.85;41.75293;939.4055;;;;
2020/01/14 10:33:00;;;;;;;18.9;4.1;;;;;;;5.9;42.1875;939.4325;;;;
2020/01/14 10:35:25;;;;;;;16.9;4.7;;;;;;;5.99;42.56934;939.4246;;;;
2020/01/14 10:37:51;;;;;;;21.5;5.1;;;;;;;6.18;42.06836;939.3678;;;;
2020/01/14 10:40:17;;;;;;;15.1;5.7;;;;;;;6.32;41.59668;939.364;;;;
2020/01/14 10:42:42;;;;;;;14.7;6.2;;;;;;;6.57;41.67676;939.3336;;;;
2020/01/14 10:45:07;;;;;;;28.1;8;;;;;;;6.81;41.38281;939.2952;;;;
2020/01/14 10:47:33;;;;;;;23;8.6;;;;;;;6.87;39.24902;939.2531;;;;
2020/01/14 10:49:58;;;;;;;47.6;9.8;;;;;;;6.92;38.43848;939.1967;;;;
2020/01/14 10:52:24;;;;;;;26.7;7.6;;;;;;;7.08;39.24512;939.1523;;;;
2020/01/14 10:54:49;;;;;;;26.6;5.8;;;;;;;7.28;38.74219;939.0751;;;;
2020/01/14 10:57:20;;;;;;;15.9;3.3;;;;;;;7.35;38.125;939.1052;;;;
2020/01/14 10:59:43;;;;;;;25.2;3.7;;;;;;;7.39;38.41309;939.1259;;;;
2020/01/14 11:03:17;;;;;;;21.8;3.4;;;;;;;7.5;36.44922;939.0954;;;;
2020/01/14 11:04:33;;;;;;;7.4;2.4;;;;;;;7.43;36.63574;939.0828;;;;
2020/01/14 11:06:54;;;;;;;11.4;2.1;;;;;;;7.51;36.54004;939.0575;;;;
2020/01/14 11:09:20;;;;;;;14.1;2.4;;;;;;;7.63;36.50586;939.0256;;;;
2020/01/14 11:11:46;;;;;;;12.1;2.4;;;;;;;7.73;35.86816;938.9889;;;;
2020/01/14 11:14:12;;;;;;;17.3;2.4;;;;;;;7.89;36.44824;938.9457;;;;
2020/01/14 11:19:03;;;;;;;12.4;2.7;;;;;;;8.19;35.04297;938.9869;;;;
2020/01/14 11:21:32;;;;;;;6.5;1.2;;;;;;;8.22;34.60352;939.1036;;;;
2020/01/14 11:23:57;;;;;;;11.6;1.9;;;;;;;8.28;34.92578;939.1191;;;;
2020/01/14 11:28:41;;;;;;;8.5;2.1;;;;;;;8.44;34.31348;939.1124;;;;
2020/01/14 11:31:06;;;;;;;16.1;2.8;;;;;;;8.46;34.73633;939.0595;;;;
2020/01/14 11:33:32;;;;;;;13.9;2.2;;;;;;;8.38;34.5127;939.0053;;;;
2020/01/14 11:35:57;;;;;;;7.8;1.8;;;;;;;8.39;34.40137;939.0136;;;;
2020/01/14 11:38:22;;;;;;;7.4;2.1;;;;;;;8.48;35.49805;939.0455;;;;
2020/01/14 11:40:48;;;;;;;6.7;2.3;;;;;;;8.67;34.19629;938.9938;;;;
2020/01/14 11:43:13;;;;;;;11.8;2.5;;;;;;;8.72;34.81445;938.9018;;;;
2020/01/14 11:45:38;;;;;;;28.6;4.4;;;;;;;8.82;34.69629;938.8339;;;;
2020/01/14 11:48:03;;;;;;;14.2;2.8;;;;;;;8.99;33.58398;938.8613;;;;
2020/01/14 11:50:28;;;;;;;10.6;2.9;;;;;;;9.07;32.30371;938.7754;;;;
2020/01/14 11:52:54;;;;;;;8.2;1.7;;;;;;;9.14;31.43359;938.7853;;;;
2020/01/14 11:55:19;;;;;;;4.6;1.7;;;;;;;9.21;33.24805;938.8439;;;;
2020/01/14 11:57:44;;;;;;;24.6;3.1;;;;;;;9.28;32.86719;938.8163;;;;
2020/01/14 12:00:12;;;;;;;15;2.7;;;;;;;9.46;32.32227;938.8042;;;;
2020/01/14 12:02:35;;;;;;;6.5;2.1;;;;;;;9.68;32.50977;938.7352;;;;
2020/01/14 12:05:00;;;;;;;9.1;1.5;;;;;;;9.76;28.81152;938.6694;;;;
2020/01/14 12:07:25;;;;;;;7.9;2.1;;;;;;;9.78;28.00293;938.6537;;;;
2020/01/14 12:09:52;;;;;;;4.7;1.9;;;;;;;9.91;28.27441;938.6142;;;;
2020/01/14 12:12:17;;;;;;;8.3;2.3;;;;;;;10.12;30.19336;938.6163;;;;
2020/01/14 12:14:42;;;;;;;16.4;2.5;;;;;;;10.3;30.18262;938.5798;;;;
2020/01/14 12:17:07;;;;;;;11.5;2.3;;;;;;;10.4;30.01953;938.6152;;;;
2020/01/14 12:19:32;;;;;;;10.6;2.5;;;;;;;10.46;30.08008;938.5922;;;;
2020/01/14 12:21:57;;;;;;;3.1;1.7;;;;;;;10.52;28.57715;938.5984;;;;
2020/01/14 12:26:48;;;;;;;5.4;1.5;;;;;;;10.55;28.7041;938.5087;;;;
2020/01/14 12:29:13;;;;;;;8.9;2.3;;;;;;;10.64;29.15625;938.4797;;;;
2020/01/14 12:31:43;;;;;;;12.8;3;;;;;;;10.66;29.62598;938.4503;;;;
2020/01/14 12:38:58;;;;;;;14.7;3.4;;;;;;;10.89;30.64648;938.4964;;;;
2020/01/14 12:51:04;;;;;;;21.8;4.9;;;;;;;10.95;33.65625;938.4922;;;;
2020/01/14 12:53:24;;;;;;;10.6;3.5;;;;;;;10.99;31.04297;938.5339;;;;
2020/01/14 12:55:50;;;;;;;13.7;3.6;;;;;;;10.99;30.13965;938.5267;;;;
2020/01/14 12:58:15;;;;;;;20.5;5.7;;;;;;;11.01;30.3916;938.514;;;;
2020/01/14 13:00:40;;;;;;;15.6;5.5;;;;;;;11.03;30.58789;938.5401;;;;
2020/01/14 13:03:06;;;;;;;13.7;4;;;;;;;11.02;31.71875;938.5687;;;;
2020/01/14 13:05:31;;;;;;;9.5;2.8;;;;;;;11.01;31.66113;938.5552;;;;
2020/01/14 13:07:56;;;;;;;10.5;2.7;;;;;;;11.08;31.97461;938.5206;;;;
2020/01/14 13:10:21;;;;;;;8;2.6;;;;;;;10.89;30.89746;938.6621;;;;
2020/01/14 13:12:47;;;;;;;11.3;3.1;;;;;;;10.95;30.78809;938.6563;;;;
2020/01/14 13:15:12;;;;;;;7.9;2.8;;;;;;;10.96;29.81836;938.6523;;;;
2020/01/14 13:17:38;;;;;;;6.6;2.7;;;;;;;10.88;28.01758;938.6063;;;;
2020/01/14 13:20:03;;;;;;;15.4;3.8;;;;;;;10.84;29.35254;938.7143;;;;
2020/01/14 13:22:28;;;;;;;11.8;3.7;;;;;;;10.85;30.00391;938.7764;;;;
2020/01/14 13:24:54;;;;;;;11.2;4;;;;;;;10.99;30.68848;938.7211;;;;
2020/01/14 13:27:19;;;;;;;12.2;3.5;;;;;;;11.06;31.10449;938.7515;;;;
2020/01/14 13:29:44;;;;;;;9.5;3.2;;;;;;;11.08;31.97559;938.7286;;;;
2020/01/14 13:32:09;;;;;;;18.7;4;;;;;;;11.1;32.31934;938.6897;;;;
2020/01/14 13:34:34;;;;;;;12;4.2;;;;;;;11.26;32.42285;938.6011;;;;
2020/01/14 13:36:59;;;;;;;13.3;4;;;;;;;11.39;30.95605;938.6227;;;;
2020/01/14 13:39:25;;;;;;;15.5;4.2;;;;;;;11.54;30.94434;938.6431;;;;
2020/01/14 13:44:15;;;;;;;17;4;;;;;;;12.1;27.74219;938.731;;;;
2020/01/14 13:46:41;;;;;;;10.5;2.4;;;;;;;12.41;27.38281;938.7324;;;;
2020/01/14 13:49:06;;;;;;;8.8;3;;;;;;;12.72;26.49609;938.6322;;;;
2020/01/14 13:51:31;;;;;;;12.7;4;;;;;;;13.12;25.4873;938.6708;;;;
2020/01/14 13:53:57;;;;;;;17;5.6;;;;;;;13.58;25.59375;938.7241;;;;
2020/01/14 13:56:22;;;;;;;3.5;1.8;;;;;;;14.39;23.99414;938.7653;;;;
2020/01/14 13:58:47;;;;;;;12;2.3;;;;;;;14.93;22.90527;938.6906;;;;
2020/01/14 14:01:12;;;;;;;3.1;1.2;;;;;;;16.15;21.79004;938.7668;;;;
2020/01/14 14:03:37;;;;;;;13.5;2.3;;;;;;;18.04;19.87402;938.7239;;;;
2020/01/14 14:06:02;;;;;;;29;4.2;;;;;;;18.98;18.37988;938.7628;;;;
2020/01/14 14:08:28;;;;;;;9.8;4.4;;;;;;;18.6;18.55078;938.7594;;;;
2020/01/14 14:10:53;;;;;;;14.8;4.7;;;;;;;18.05;19.24805;938.7824;;;;
2020/01/14 14:13:18;;;;;;;9.9;4.3;;;;;;;17.93;19.56738;938.7772;;;;
2020/01/14 14:15:43;;;;;;;23.4;5.7;;;;;;;17.99;20.09277;938.8317;;;;
2020/01/14 14:18:08;;;;;;;14;6.8;;;;;;;17.33;20.87402;938.8505;;;;
2020/01/14 14:20:33;;;;;;;17.8;6.9;;;;;;;16.44;21.56152;938.8597;;;;
2020/01/14 14:22:59;;;;;;;19.6;6.3;;;;;;;14.63;23.75391;938.8965;;;;
2020/01/14 14:25:24;;;;;;;25.5;8.5;;;;;;;12.64;26.39941;938.9301;;;;
2020/01/14 14:27:52;;;;;;;30.1;10;;;;;;;11.4;28.53223;939.0309;;;;
2020/01/14 14:33:41;;;;;;;15.7;5.9;;;;;;;11.16;29.07715;939.1117;;;;
2020/01/14 14:35:18;;;;;;;30.3;9;;;;;;;11.8;28.74219;939.1877;;;;
2020/01/14 14:37:30;;;;;;;20.5;7.7;;;;;;;12.97;27.1543;939.2051;;;;
2020/01/14 14:42:41;;;;;;;40.4;10.8;;;;;;;13.91;26.75195;939.1547;;;;
2020/01/14 14:47:12;;;;;;;20.3;7.5;;;;;;;14.22;28.67188;939.2498;;;;
2020/01/14 14:49:36;;;;;;;17.7;7.9;;;;;;;13.57;29.08887;939.205;;;;
2020/01/14 14:52:01;;;;;;;21.3;8.1;;;;;;;12.65;30.23242;939.252;;;;
2020/01/14 14:54:26;;;;;;;22.6;8.4;;;;;;;11.78;30.75586;939.2112;;;;
2020/01/14 14:56:52;;;;;;;21.4;8.4;;;;;;;10.73;32.17871;939.3135;;;;
2020/01/14 14:59:17;;;;;;;43.1;11.8;;;;;;;10.09;33.7373;939.3088;;;;
2020/01/14 15:01:42;;;;;;;37.5;13.3;;;;;;;9.57;34.72363;939.2971;;;;
2020/01/14 15:04:08;;;;;;;41.8;14.5;;;;;;;9.08;35.86719;939.3348;;;;
2020/01/14 15:06:32;;;;;;;35.6;14.6;;;;;;;8.8;36.91211;939.277;;;;
2020/01/14 15:08:58;;;;;;;33;14.9;;;;;;;8.66;37.24121;939.3444;;;;
2020/01/14 15:11:23;;;;;;;38.5;16.7;;;;;;;8.56;37.58594;939.4161;;;;